Time;durP1;ratioP1;P1;durP2;ratioP2;P2;SDS_P1;SDS_P2;PMS_P1;PMS_P2;Temp;Humidity;BMP_temperature;BMP_pressure;BME280_temperature;BME280_humidity;BME280_pressure;Samples;Min_cycle;Max_cycle;Signal;HPM_P1;HPM_P2
2022/10/26 00:01:14;;;;;;;9.32;3.10;;;10.40;99.90;;;;;;4954411;29;20459;-67
2022/10/26 00:03:41;;;;;;;5.43;3.22;;;9.90;99.90;;;;;;4954616;29;20560;-67
2022/10/26 00:06:28;;;;;;;7.35;3.67;;;9.90;99.90;;;;;;4954230;29;20043;-67
2022/10/26 00:08:55;;;;;;;4.82;3.28;;;9.90;99.90;;;;;;4954584;29;20398;-67
2022/10/26 00:11:22;;;;;;;7.32;3.38;;;9.90;99.90;;;;;;4954520;29;20082;-67
2022/10/26 00:13:47;;;;;;;6.32;3.22;;;9.90;99.90;;;;;;4954176;29;20037;-67
2022/10/26 00:16:20;;;;;;;5.78;3.70;;;9.90;99.90;;;;;;4954482;29;20047;-67
2022/10/26 00:18:46;;;;;;;5.40;3.40;;;9.90;99.90;;;;;;4954394;29;20042;-67
2022/10/26 00:21:12;;;;;;;4.72;3.00;;;9.90;99.90;;;;;;4954220;29;20057;-67
2022/10/26 00:23:38;;;;;;;6.90;3.13;;;9.90;99.90;;;;;;4937276;29;20487;-67
2022/10/26 00:26:04;;;;;;;5.63;3.40;;;9.90;99.90;;;;;;4936884;29;20130;-67
2022/10/26 00:28:30;;;;;;;5.10;2.70;;;9.90;99.90;;;;;;4954184;28;20081;-67
2022/10/26 00:31:00;;;;;;;5.63;3.13;;;9.80;99.90;;;;;;4954373;29;20039;-67
2022/10/26 00:33:26;;;;;;;7.65;3.08;;;9.80;99.90;;;;;;4954283;29;20066;-67
2022/10/26 00:35:53;;;;;;;8.52;3.50;;;9.80;99.90;;;;;;4954344;29;20044;-67
2022/10/26 00:38:19;;;;;;;6.40;3.58;;;9.80;99.90;;;;;;4954220;29;20050;-67
2022/10/26 00:40:45;;;;;;;6.60;3.47;;;9.80;99.90;;;;;;4954217;29;20105;-67
2022/10/26 00:43:34;;;;;;;4.70;3.05;;;9.70;99.90;;;;;;4954270;29;20043;-67
2022/10/26 00:46:02;;;;;;;4.63;2.97;;;9.70;99.90;;;;;;4953186;29;20138;-67
2022/10/26 00:48:32;;;;;;;5.40;3.38;;;9.70;99.90;;;;;;4954107;29;20455;-67
2022/10/26 00:51:01;;;;;;;4.72;3.35;;;9.60;99.90;;;;;;4954182;29;20391;-67
2022/10/26 00:53:28;;;;;;;4.85;2.83;;;9.60;99.90;;;;;;4956423;28;20042;-67
2022/10/26 00:55:55;;;;;;;6.00;3.53;;;9.50;99.90;;;;;;4957869;29;20066;-67
2022/10/26 00:58:23;;;;;;;6.35;3.80;;;9.50;99.90;;;;;;4957885;29;20035;-67
2022/10/26 01:00:49;;;;;;;4.35;2.97;;;9.40;99.90;;;;;;4957762;29;20039;-67
2022/10/26 01:03:16;;;;;;;5.85;3.00;;;9.40;99.90;;;;;;4957452;29;20047;-67
2022/10/26 01:05:43;;;;;;;9.15;3.22;;;9.40;99.90;;;;;;4957628;29;20134;-67
2022/10/26 01:08:09;;;;;;;6.00;3.05;;;9.40;99.90;;;;;;4957700;29;20054;-67
2022/10/26 01:10:37;;;;;;;6.35;3.25;;;9.30;99.90;;;;;;4940472;29;20478;-67
2022/10/26 01:13:03;;;;;;;7.13;3.50;;;9.60;99.90;;;;;;4957565;29;20043;-67
2022/10/26 01:15:48;;;;;;;5.90;3.10;;;9.40;99.90;;;;;;4957314;29;20491;-67
2022/10/26 01:19:07;;;;;;;6.53;3.65;;;9.30;99.90;;;;;;4957568;29;20047;-67
2022/10/26 01:21:45;;;;;;;6.93;3.80;;;9.30;99.90;;;;;;4879291;29;20045;-67
2022/10/26 01:24:33;;;;;;;7.60;4.25;;;9.30;99.90;;;;;;4956793;29;20138;-67
2022/10/26 01:27:28;;;;;;;7.10;3.30;;;9.20;99.90;;;;;;4957270;29;20089;-67
2022/10/26 01:30:16;;;;;;;9.07;3.92;;;9.20;99.90;;;;;;4939586;29;20060;-67
2022/10/26 01:33:13;;;;;;;8.40;4.47;;;9.20;99.90;;;;;;4957220;29;20051;-67
2022/10/26 01:35:51;;;;;;;8.02;3.70;;;9.20;99.90;;;;;;4909319;29;20475;-67
2022/10/26 01:39:00;;;;;;;8.10;3.95;;;9.20;99.90;;;;;;4939965;29;20039;-67
2022/10/26 01:41:34;;;;;;;9.13;4.00;;;9.20;99.90;;;;;;4939563;29;20186;-67
2022/10/26 01:44:09;;;;;;;7.18;4.15;;;9.20;99.90;;;;;;4956783;29;20062;-67
2022/10/26 01:46:39;;;;;;;9.60;4.68;;;9.10;99.90;;;;;;4939419;29;20051;-67
2022/10/26 01:49:09;;;;;;;6.40;3.70;;;9.10;99.90;;;;;;4939837;29;20415;-67
2022/10/26 01:51:36;;;;;;;6.97;3.78;;;9.10;99.90;;;;;;4956614;29;20043;-67
2022/10/26 01:54:02;;;;;;;6.13;3.70;;;9.10;99.90;;;;;;4956551;29;20047;-67
2022/10/26 01:56:30;;;;;;;8.20;4.45;;;9.10;99.90;;;;;;4956762;29;20114;-67
2022/10/26 01:59:02;;;;;;;5.78;3.47;;;9.10;99.90;;;;;;4939510;29;20043;-67
2022/10/26 02:01:57;;;;;;;7.43;4.70;;;9.10;99.90;;;;;;4956446;29;20047;-66
2022/10/26 02:04:55;;;;;;;6.75;4.18;;;9.10;99.90;;;;;;4955627;28;20058;-67
2022/10/26 02:07:38;;;;;;;7.63;4.25;;;9.10;99.90;;;;;;4913706;29;20384;-67
2022/10/26 02:10:26;;;;;;;7.63;4.53;;;9.10;99.90;;;;;;4956568;29;20046;-67
2022/10/26 02:13:06;;;;;;;9.57;4.65;;;9.10;99.90;;;;;;4956547;29;20055;-67
2022/10/26 02:15:38;;;;;;;6.28;4.00;;;9.10;99.90;;;;;;4956201;29;20168;-67
2022/10/26 02:18:17;;;;;;;11.50;3.92;;;9.10;99.90;;;;;;4956092;29;20126;-67
2022/10/26 02:20:48;;;;;;;7.63;3.88;;;9.20;99.90;;;;;;4939242;29;20051;-67
2022/10/26 02:23:15;;;;;;;6.65;4.30;;;9.00;99.90;;;;;;4956351;29;20047;-67
2022/10/26 02:25:50;;;;;;;9.65;5.20;;;9.10;99.90;;;;;;4938920;29;20047;-67
2022/10/26 02:28:25;;;;;;;8.90;4.32;;;9.10;99.90;;;;;;4956197;29;20050;-67
2022/10/26 02:30:56;;;;;;;11.30;4.38;;;9.10;99.90;;;;;;4955804;29;20107;-67
2022/10/26 02:33:25;;;;;;;10.00;4.53;;;9.10;99.90;;;;;;4956219;29;20155;-67
2022/10/26 02:35:53;;;;;;;8.55;4.45;;;9.10;99.90;;;;;;4956059;29;20050;-67
2022/10/26 02:38:20;;;;;;;7.30;4.40;;;9.10;99.90;;;;;;4956073;29;20514;-67
2022/10/26 02:40:50;;;;;;;8.40;4.57;;;9.10;99.90;;;;;;4955689;29;20043;-67
2022/10/26 02:43:21;;;;;;;11.73;5.00;;;9.10;99.90;;;;;;4938522;29;20103;-67
2022/10/26 02:45:52;;;;;;;9.80;4.43;;;9.10;99.90;;;;;;4938439;29;20051;-67
2022/10/26 02:48:19;;;;;;;8.27;4.53;;;9.10;99.90;;;;;;4938308;29;20150;-67
2022/10/26 02:51:01;;;;;;;7.28;4.38;;;9.10;99.90;;;;;;4938232;29;20047;-67
2022/10/26 02:53:42;;;;;;;11.73;5.13;;;9.10;99.90;;;;;;4955716;29;20042;-67
2022/10/26 02:56:25;;;;;;;6.93;3.83;;;9.10;99.90;;;;;;4955718;29;20082;-67
2022/10/26 02:58:54;;;;;;;10.43;5.57;;;9.10;99.90;;;;;;4955376;29;20047;-67
2022/10/26 03:01:20;;;;;;;9.38;4.90;;;9.10;99.90;;;;;;4955597;29;20479;-67
2022/10/26 03:03:47;;;;;;;10.15;4.85;;;9.10;99.90;;;;;;4955555;29;20049;-67
2022/10/26 03:06:20;;;;;;;8.38;4.60;;;9.10;99.90;;;;;;4955489;29;20065;-67
2022/10/26 03:08:45;;;;;;;10.80;4.57;;;9.10;99.90;;;;;;4955477;29;20521;-67
2022/10/26 03:11:11;;;;;;;8.73;5.25;;;9.10;99.90;;;;;;4955447;29;20039;-67
2022/10/26 03:13:37;;;;;;;10.73;5.82;;;9.10;99.90;;;;;;4922428;29;20431;-67
2022/10/26 03:16:02;;;;;;;7.25;4.60;;;9.10;99.90;;;;;;4955150;28;20491;-67
2022/10/26 03:18:28;;;;;;;12.18;5.45;;;9.10;99.90;;;;;;4955312;29;20051;-67
2022/10/26 03:20:53;;;;;;;9.75;4.75;;;9.10;99.90;;;;;;4955307;29;20055;-67
2022/10/26 03:23:19;;;;;;;11.23;5.18;;;9.10;99.90;;;;;;4937769;29;20055;-67
2022/10/26 03:25:45;;;;;;;7.10;4.68;;;9.10;99.90;;;;;;4937721;29;20549;-67
2022/10/26 03:28:10;;;;;;;9.38;5.28;;;9.10;99.90;;;;;;4955192;29;20043;-67
2022/10/26 03:30:36;;;;;;;8.25;4.60;;;9.10;99.90;;;;;;4937419;29;20507;-67
2022/10/26 03:33:02;;;;;;;9.68;4.65;;;9.30;99.90;;;;;;4955103;29;20043;-67
2022/10/26 03:35:27;;;;;;;8.23;4.78;;;9.10;99.90;;;;;;4955020;29;20560;-67
2022/10/26 03:37:53;;;;;;;7.65;4.90;;;9.10;99.90;;;;;;4906021;29;20125;-67
2022/10/26 03:40:19;;;;;;;9.65;5.60;;;9.80;99.90;;;;;;4954973;29;20398;-67
2022/10/26 03:42:45;;;;;;;8.25;4.65;;;9.10;99.90;;;;;;4954889;29;20206;-67
2022/10/26 03:45:11;;;;;;;11.63;5.55;;;9.10;99.90;;;;;;4937351;29;20411;-67
2022/10/26 03:47:44;;;;;;;11.05;5.50;;;9.60;99.90;;;;;;4954505;29;20035;-67
2022/10/26 03:50:11;;;;;;;9.68;5.13;;;9.10;99.90;;;;;;4954847;29;20395;-67
2022/10/26 03:52:36;;;;;;;9.50;4.55;;;9.10;99.90;;;;;;4937493;29;20053;-67
2022/10/26 03:55:03;;;;;;;8.18;4.90;;;9.10;99.90;;;;;;4937276;29;20398;-67
2022/10/26 03:57:28;;;;;;;9.90;5.28;;;9.10;99.90;;;;;;4937630;29;20047;-67
2022/10/26 03:59:54;;;;;;;7.32;4.65;;;9.40;99.90;;;;;;4954692;29;20051;-67
2022/10/26 04:02:19;;;;;;;9.07;5.38;;;9.30;99.90;;;;;;4954529;29;20139;-67
2022/10/26 04:04:45;;;;;;;7.88;4.80;;;9.10;99.90;;;;;;4954545;29;20039;-67
2022/10/26 04:07:11;;;;;;;12.00;5.78;;;9.10;99.90;;;;;;4954629;29;20043;-67
2022/10/26 04:09:36;;;;;;;7.85;4.95;;;9.10;99.90;;;;;;4954229;29;20046;-67
2022/10/26 04:12:02;;;;;;;10.85;5.20;;;9.10;99.90;;;;;;4954595;29;20054;-67
2022/10/26 04:14:28;;;;;;;10.02;5.30;;;9.10;99.90;;;;;;4954426;29;20118;-67
2022/10/26 04:16:53;;;;;;;7.85;5.05;;;9.10;99.90;;;;;;4954601;29;20054;-67
2022/10/26 04:19:19;;;;;;;10.15;5.30;;;9.20;99.90;;;;;;4937224;29;20066;-67
2022/10/26 04:21:44;;;;;;;9.23;5.45;;;9.10;99.90;;;;;;4954446;29;20122;-67
2022/10/26 04:24:10;;;;;;;8.23;5.07;;;9.20;99.90;;;;;;4954465;29;20047;-67
2022/10/26 04:26:36;;;;;;;9.90;5.75;;;9.10;99.90;;;;;;4954249;28;20098;-67
2022/10/26 04:29:05;;;;;;;16.13;5.70;;;9.10;99.90;;;;;;4957792;28;20142;-67
2022/10/26 04:31:31;;;;;;;11.20;5.45;;;9.10;99.90;;;;;;4940859;29;20407;-67
2022/10/26 04:33:57;;;;;;;12.00;5.30;;;9.10;99.90;;;;;;4958263;29;20042;-67
2022/10/26 04:36:23;;;;;;;12.65;5.20;;;9.10;99.90;;;;;;4940717;29;20566;-67
2022/10/26 04:38:49;;;;;;;11.57;5.68;;;9.10;99.90;;;;;;4958163;29;20051;-67
2022/10/26 04:41:15;;;;;;;9.07;4.47;;;9.20;99.90;;;;;;4957932;29;20455;-67
2022/10/26 04:43:40;;;;;;;8.55;5.15;;;9.20;99.90;;;;;;4958117;29;20050;-67
2022/10/26 04:46:06;;;;;;;11.02;5.72;;;9.20;99.90;;;;;;4924856;29;20522;-67
2022/10/26 04:48:31;;;;;;;10.90;5.60;;;9.20;99.90;;;;;;4940897;29;20040;-67
2022/10/26 04:50:58;;;;;;;8.95;5.20;;;9.20;99.90;;;;;;4940577;29;20569;-67
2022/10/26 04:53:24;;;;;;;9.07;5.28;;;9.20;99.90;;;;;;4957658;29;20130;-67
2022/10/26 04:55:56;;;;;;;8.52;5.22;;;9.30;99.90;;;;;;4957890;29;20130;-67
2022/10/26 04:58:21;;;;;;;9.52;5.50;;;9.30;99.90;;;;;;4957909;29;20116;-67
2022/10/26 05:00:47;;;;;;;10.50;5.28;;;10.20;99.90;;;;;;4957838;29;20125;-67
2022/10/26 05:03:13;;;;;;;10.82;5.72;;;9.40;99.90;;;;;;4924738;29;20058;-67
2022/10/26 05:05:38;;;;;;;11.30;5.90;;;10.00;99.90;;;;;;4940277;29;20043;-67
2022/10/26 05:08:04;;;;;;;13.55;5.80;;;9.40;99.90;;;;;;4940581;29;20048;-67
2022/10/26 05:10:30;;;;;;;10.65;5.82;;;9.40;99.90;;;;;;4957618;29;20391;-67
2022/10/26 05:12:58;;;;;;;9.52;5.35;;;9.80;99.90;;;;;;4957657;29;20031;-67
2022/10/26 05:15:24;;;;;;;7.10;4.60;;;9.50;99.90;;;;;;4940064;29;20051;-67
2022/10/26 05:17:57;;;;;;;11.50;5.85;;;9.50;99.90;;;;;;4957465;29;20058;-68
2022/10/26 05:20:28;;;;;;;7.53;4.85;;;9.50;99.90;;;;;;4957522;29;20451;-67
2022/10/26 05:22:54;;;;;;;;;;;9.50;99.90;;;;;;4957536;29;20130;-67
2022/10/26 05:25:20;;;;;;;13.38;5.25;;;9.60;99.90;;;;;;4939879;29;20013;-67
2022/10/26 05:27:45;;;;;;;6.78;4.30;;;9.60;99.90;;;;;;4957319;29;20547;-67
2022/10/26 05:30:11;;;;;;;10.60;5.43;;;9.60;99.90;;;;;;4956896;28;20134;-68
2022/10/26 05:32:37;;;;;;;10.30;4.70;;;9.60;99.90;;;;;;4956903;29;20085;-66
2022/10/26 05:35:03;;;;;;;11.10;5.00;;;9.60;99.90;;;;;;4957048;29;20078;-67
2022/10/26 05:37:29;;;;;;;8.65;5.13;;;9.60;99.90;;;;;;4939751;29;20043;-66
2022/10/26 05:39:54;;;;;;;9.48;4.50;;;10.00;99.90;;;;;;4939525;29;20035;-67
2022/10/26 05:42:20;;;;;;;9.77;6.05;;;9.60;99.90;;;;;;4957257;29;20122;-66
2022/10/26 05:44:46;;;;;;;8.23;4.50;;;9.60;99.90;;;;;;4939555;29;20043;-66
2022/10/26 05:47:12;;;;;;;10.88;5.47;;;9.80;99.90;;;;;;4957041;29;20480;-66
2022/10/26 05:49:37;;;;;;;7.88;4.63;;;9.60;99.90;;;;;;4956931;29;20043;-67
2022/10/26 05:52:04;;;;;;;12.82;5.43;;;9.60;99.90;;;;;;4956958;29;20462;-67
2022/10/26 05:54:30;;;;;;;7.97;4.35;;;9.60;99.90;;;;;;4956412;29;20118;-66
2022/10/26 05:56:56;;;;;;;8.50;5.22;;;9.60;99.90;;;;;;4956808;29;20130;-67
2022/10/26 05:59:22;;;;;;;9.55;5.22;;;9.70;99.90;;;;;;4939303;29;20051;-67
2022/10/26 06:01:53;;;;;;;7.45;4.70;;;9.70;99.90;;;;;;4956678;29;20047;-66
2022/10/26 06:04:34;;;;;;;9.05;4.22;;;9.70;99.90;;;;;;4956671;29;20561;-67
2022/10/26 06:07:01;;;;;;;9.40;4.63;;;9.70;99.90;;;;;;4956326;29;20043;-66
2022/10/26 06:09:27;;;;;;;9.95;5.00;;;9.70;99.90;;;;;;4939051;29;20102;-66
2022/10/26 06:11:53;;;;;;;14.35;4.97;;;9.70;99.90;;;;;;4956536;29;20043;-66
2022/10/26 06:14:19;;;;;;;7.45;4.43;;;9.70;99.90;;;;;;4956537;29;20043;-66
2022/10/26 06:17:06;;;;;;;9.95;3.85;;;9.60;99.90;;;;;;4956112;29;20380;-66
2022/10/26 06:20:03;;;;;;;8.60;4.68;;;9.70;99.90;;;;;;4938927;29;20049;-66
2022/10/26 06:22:59;;;;;;;10.70;4.55;;;9.80;99.90;;;;;;4956242;29;20055;-66
2022/10/26 06:25:42;;;;;;;6.85;4.45;;;9.80;99.90;;;;;;4955996;29;20138;-66
2022/10/26 06:28:20;;;;;;;7.05;4.15;;;9.80;99.90;;;;;;4956253;29;20097;-66
2022/10/26 06:30:45;;;;;;;7.90;4.43;;;9.80;99.90;;;;;;4938601;29;20111;-66
2022/10/26 06:33:12;;;;;;;7.63;4.20;;;9.90;99.90;;;;;;4938729;29;20086;-66
2022/10/26 06:35:44;;;;;;;7.63;4.00;;;9.90;99.90;;;;;;4938570;29;20055;-67
2022/10/26 06:38:14;;;;;;;5.93;4.00;;;9.90;99.90;;;;;;4955944;29;20424;-66
2022/10/26 06:40:43;;;;;;;8.32;4.30;;;10.00;99.90;;;;;;4955991;29;20046;-67
2022/10/26 06:43:12;;;;;;;5.25;3.47;;;10.00;99.90;;;;;;4938781;29;20051;-69
2022/10/26 06:45:43;;;;;;;6.35;3.90;;;10.10;99.90;;;;;;4955490;29;20052;-69
2022/10/26 06:48:15;;;;;;;9.02;4.35;;;10.10;99.90;;;;;;4938328;29;20051;-68
2022/10/26 06:51:10;;;;;;;7.72;3.60;;;10.10;99.90;;;;;;4937762;29;20118;-68
2022/10/26 06:53:47;;;;;;;5.03;3.55;;;10.10;99.90;;;;;;4953375;29;20435;-68
2022/10/26 06:56:13;;;;;;;6.43;3.60;;;10.50;99.90;;;;;;4955738;29;20043;-68
2022/10/26 06:58:39;;;;;;;6.97;3.78;;;10.20;99.90;;;;;;4955368;29;20047;-68
2022/10/26 07:01:06;;;;;;;7.00;3.92;;;10.20;99.90;;;;;;4955423;29;20125;-68
2022/10/26 07:03:32;;;;;;;6.82;3.53;;;10.30;99.90;;;;;;4955328;29;20054;-68
2022/10/26 07:05:57;;;;;;;8.93;4.55;;;10.40;99.90;;;;;;4955415;29;20058;-68
2022/10/26 07:08:23;;;;;;;5.60;3.47;;;10.30;99.90;;;;;;4938131;29;20059;-68
2022/10/26 07:10:49;;;;;;;7.43;3.53;;;10.40;99.90;;;;;;4955119;29;20043;-68
2022/10/26 07:13:14;;;;;;;6.38;3.45;;;10.40;99.90;;;;;;4922019;29;20109;-69
2022/10/26 07:15:41;;;;;;;5.30;3.50;;;10.40;99.90;;;;;;4938192;29;20126;-68
2022/10/26 07:18:07;;;;;;;6.07;3.97;;;10.40;99.90;;;;;;4955040;29;20053;-71
2022/10/26 07:20:40;;;;;;;6.35;3.33;;;10.40;99.90;;;;;;4955298;29;20126;-68
2022/10/26 07:23:09;;;;;;;4.47;3.05;;;10.40;99.90;;;;;;4955264;29;20043;-68
2022/10/26 07:25:38;;;;;;;7.25;3.15;;;10.40;99.90;;;;;;4955088;29;20058;-68
2022/10/26 07:28:05;;;;;;;4.45;3.08;;;10.40;99.90;;;;;;4937720;29;20051;-68
2022/10/26 07:30:31;;;;;;;8.25;3.28;;;10.50;99.90;;;;;;4937626;29;20058;-67
2022/10/26 07:33:00;;;;;;;7.90;3.20;;;10.50;99.90;;;;;;4955062;29;20039;-69
2022/10/26 07:35:26;;;;;;;5.93;3.22;;;10.60;99.90;;;;;;4937689;29;20062;-69
2022/10/26 07:37:56;;;;;;;6.38;3.53;;;10.70;99.90;;;;;;4955082;29;20478;-69
2022/10/26 07:40:22;;;;;;;6.50;3.55;;;11.10;99.90;;;;;;4954765;29;20047;-69
2022/10/26 07:42:47;;;;;;;6.47;2.97;;;10.90;99.90;;;;;;4954485;29;20061;-69
2022/10/26 07:45:13;;;;;;;5.82;3.15;;;11.00;99.90;;;;;;4954779;29;20130;-69
2022/10/26 07:47:39;;;;;;;6.85;3.33;;;11.00;99.90;;;;;;4954517;29;20039;-69
2022/10/26 07:50:05;;;;;;;5.50;3.15;;;11.10;99.90;;;;;;4954835;29;20046;-69
2022/10/26 07:52:31;;;;;;;6.32;3.03;;;11.10;99.90;;;;;;4954803;29;20043;-69
2022/10/26 07:54:57;;;;;;;5.55;3.30;;;11.20;99.90;;;;;;4954433;29;20054;-69
2022/10/26 07:57:22;;;;;;;5.55;2.85;;;11.20;99.90;;;;;;4954764;29;20043;-70
2022/10/26 07:59:48;;;;;;;5.05;2.80;;;11.20;99.90;;;;;;4937135;29;20098;-69
2022/10/26 08:02:14;;;;;;;5.72;3.15;;;11.30;99.90;;;;;;4953892;28;20457;-69
2022/10/26 08:04:39;;;;;;;5.50;3.08;;;11.30;99.90;;;;;;4954535;29;20479;-70
2022/10/26 08:07:05;;;;;;;5.55;3.35;;;11.30;99.90;;;;;;4954229;29;20096;-69
2022/10/26 08:09:31;;;;;;;4.70;2.67;;;11.40;99.90;;;;;;4937337;29;20078;-69
2022/10/26 08:11:56;;;;;;;6.20;3.47;;;11.40;99.90;;;;;;4954551;29;20046;-69
2022/10/26 08:14:22;;;;;;;4.63;3.10;;;11.40;99.90;;;;;;4937042;29;20129;-70
2022/10/26 08:16:51;;;;;;;3.95;2.78;;;11.50;99.90;;;;;;4936959;29;20529;-69
2022/10/26 08:19:17;;;;;;;4.53;3.13;;;11.70;99.90;;;;;;4936925;29;20055;-69
2022/10/26 08:21:43;;;;;;;4.95;3.28;;;11.70;99.90;;;;;;4936961;29;20058;-69
2022/10/26 08:24:08;;;;;;;5.25;3.25;;;11.80;99.90;;;;;;4954452;29;20047;-69
2022/10/26 08:26:34;;;;;;;7.97;2.72;;;11.90;99.90;;;;;;4954347;29;20039;-70
2022/10/26 08:29:00;;;;;;;3.90;2.75;;;11.90;99.90;;;;;;4937142;29;20039;-70
2022/10/26 08:31:25;;;;;;;4.03;2.22;;;12.20;99.90;;;;;;4936699;29;20130;-69
2022/10/26 08:33:51;;;;;;;6.03;2.50;;;11.80;99.90;;;;;;4954391;29;20054;-69
2022/10/26 08:36:23;;;;;;;5.38;2.47;;;11.80;99.90;;;;;;4954018;29;20074;-69
2022/10/26 08:38:49;;;;;;;5.65;2.70;;;11.90;99.90;;;;;;4937055;29;20404;-70
2022/10/26 08:41:14;;;;;;;7.55;3.10;;;12.00;99.90;;;;;;4954265;29;20047;-69
2022/10/26 08:43:48;;;;;;;5.53;2.42;;;12.10;99.90;;;;;;4954285;29;20047;-70
2022/10/26 08:46:20;;;;;;;3.45;2.63;;;12.10;99.90;;;;;;4953971;29;20101;-70
2022/10/26 08:48:52;;;;;;;4.32;2.30;;;12.10;99.90;;;;;;4953897;29;20047;-70
2022/10/26 08:51:23;;;;;;;3.95;2.53;;;12.20;99.90;;;;;;4936760;29;20051;-69
2022/10/26 08:53:55;;;;;;;;;;;12.20;99.90;;;;;;4937142;29;20047;-69
2022/10/26 08:56:27;;;;;;;3.28;2.10;;;12.30;99.90;;;;;;4954112;29;19922;-70
2022/10/26 08:59:00;;;;;;;6.45;2.40;;;12.30;99.90;;;;;;4954212;29;20054;-69
2022/10/26 09:01:25;;;;;;;2.92;1.85;;;12.30;99.90;;;;;;4937014;29;20036;-70
2022/10/26 09:03:51;;;;;;;4.72;2.67;;;12.40;99.90;;;;;;4936870;29;20062;-70
2022/10/26 09:06:43;;;;;;;6.80;3.15;;;12.50;99.90;;;;;;4954036;29;20043;-70
2022/10/26 09:09:27;;;;;;;9.07;3.95;;;12.50;99.90;;;;;;4936982;29;20431;-69
2022/10/26 09:12:08;;;;;;;3.97;1.98;;;12.70;99.90;;;;;;4954057;29;20047;-70
2022/10/26 09:14:53;;;;;;;3.03;2.30;;;12.80;99.90;;;;;;4956706;28;20511;-69
2022/10/26 09:17:42;;;;;;;3.38;2.38;;;12.90;99.90;;;;;;4957218;29;20047;-69
2022/10/26 09:20:36;;;;;;;3.50;1.90;;;13.00;99.90;;;;;;4957143;29;20107;-69
2022/10/26 09:23:27;;;;;;;2.47;1.67;;;13.10;99.90;;;;;;4957246;29;20039;-69
2022/10/26 09:26:00;;;;;;;5.35;1.92;;;13.20;99.90;;;;;;4957409;29;20050;-69
2022/10/26 09:28:31;;;;;;;3.13;1.60;;;13.40;99.90;;;;;;4957308;29;20051;-69
2022/10/26 09:30:59;;;;;;;2.97;1.75;;;13.40;99.90;;;;;;4956930;29;20114;-69
2022/10/26 09:33:26;;;;;;;7.97;2.08;;;13.50;99.90;;;;;;4939719;29;20047;-70
2022/10/26 09:36:00;;;;;;;3.10;1.63;;;13.60;99.90;;;;;;4939822;29;20106;-70
2022/10/26 09:38:29;;;;;;;3.42;1.63;;;13.80;99.90;;;;;;4956887;29;20078;-69
2022/10/26 09:40:57;;;;;;;3.70;2.05;;;13.90;99.90;;;;;;4957126;29;20050;-69
2022/10/26 09:43:39;;;;;;;2.65;1.55;;;13.90;99.90;;;;;;4957148;29;20487;-69
2022/10/26 09:46:04;;;;;;;2.65;1.50;;;14.00;99.90;;;;;;4939879;29;20043;-69
2022/10/26 09:48:38;;;;;;;5.28;2.42;;;14.10;99.90;;;;;;4939559;29;20126;-69
2022/10/26 09:51:04;;;;;;;2.72;1.80;;;14.20;99.90;;;;;;4939428;29;20057;-69
2022/10/26 09:53:30;;;;;;;2.75;1.80;;;14.30;99.90;;;;;;4939777;29;20047;-71
2022/10/26 09:56:08;;;;;;;2.28;1.60;;;14.40;99.90;;;;;;4956886;29;20066;-70
2022/10/26 09:58:45;;;;;;;5.18;1.35;;;14.50;99.90;;;;;;4956820;29;20058;-68
2022/10/26 10:01:33;;;;;;;3.67;1.60;;;14.60;99.90;;;;;;4939395;29;20479;-70
2022/10/26 10:04:15;;;;;;;6.95;1.80;;;14.70;99.90;;;;;;4939202;29;20054;-69
2022/10/26 10:06:43;;;;;;;2.65;1.42;;;14.80;99.90;;;;;;4956235;29;20049;-70
2022/10/26 10:09:23;;;;;;;3.50;1.73;;;14.80;99.90;;;;;;4939052;29;20043;-69
2022/10/26 10:11:55;;;;;;;1.63;1.15;;;15.00;99.90;;;;;;4956562;29;20043;-70
2022/10/26 10:14:30;;;;;;;2.78;1.13;;;15.00;99.90;;;;;;4939372;29;20062;-68
2022/10/26 10:17:01;;;;;;;3.80;1.58;;;15.00;99.90;;;;;;4938943;29;20083;-69
2022/10/26 10:19:29;;;;;;;2.38;1.48;;;15.10;99.90;;;;;;4956168;29;20050;-70
2022/10/26 10:22:15;;;;;;;2.55;1.35;;;15.30;99.90;;;;;;4956138;29;20757;-69
2022/10/26 10:25:02;;;;;;;2.47;1.25;;;15.50;99.90;;;;;;4937991;29;20061;-69
2022/10/26 10:27:29;;;;;;;4.90;1.65;;;15.70;99.90;;;;;;4955885;29;20159;-69
2022/10/26 10:29:56;;;;;;;5.03;1.38;;;15.80;99.90;;;;;;4956014;29;20466;-69
2022/10/26 10:32:26;;;;;;;3.80;1.15;;;15.90;99.90;;;;;;4938663;29;20047;-69
2022/10/26 10:34:57;;;;;;;2.38;1.27;;;16.00;99.90;;;;;;4956222;29;20510;-69
2022/10/26 10:37:43;;;;;;;2.35;1.38;;;16.10;99.90;;;;;;4938956;29;20537;-69
2022/10/26 10:40:24;;;;;;;4.18;1.25;;;16.10;99.90;;;;;;4955862;29;20039;-70
2022/10/26 10:42:52;;;;;;;4.68;1.73;;;16.20;99.90;;;;;;4939093;29;20488;-68
2022/10/26 10:45:22;;;;;;;2.78;1.30;;;16.20;99.90;;;;;;4955912;29;20178;-69
2022/10/26 10:48:15;;;;;;;1.90;1.10;;;16.20;99.90;;;;;;4955866;29;20126;-69
2022/10/26 10:50:55;;;;;;;2.30;1.08;;;16.30;99.90;;;;;;4955625;29;20105;-69
2022/10/26 10:53:24;;;;;;;3.83;1.20;;;16.40;99.90;;;;;;4955860;29;20039;-70
2022/10/26 10:56:06;;;;;;;3.17;1.10;;;16.40;99.90;;;;;;4955505;29;20085;-69
2022/10/26 10:59:00;;;;;;;2.88;1.35;;;16.50;99.90;;;;;;4938307;29;20055;-67
2022/10/26 11:01:31;;;;;;;4.78;1.58;;;16.50;99.90;;;;;;4955630;29;20095;-68
2022/10/26 11:04:05;;;;;;;;;;;16.50;99.90;;;;;;4956027;29;20039;-68
2022/10/26 11:06:36;;;;;;;4.57;1.20;;;16.60;99.90;;;;;;4938026;29;19918;-68
2022/10/26 11:09:10;;;;;;;;;;;16.80;99.90;;;;;;4938508;29;20043;-68
2022/10/26 11:11:49;;;;;;;1.98;1.20;;;17.00;99.90;;;;;;4937976;29;20016;-68
2022/10/26 11:14:17;;;;;;;1.33;0.90;;;17.10;99.90;;;;;;4955544;29;20043;-68
2022/10/26 11:16:47;;;;;;;2.67;1.10;;;17.30;99.90;;;;;;4937973;29;20063;-69
2022/10/26 11:19:23;;;;;;;3.63;1.27;;;17.50;99.90;;;;;;4955128;29;20059;-69
2022/10/26 11:21:54;;;;;;;3.20;1.23;;;17.60;99.90;;;;;;4938107;29;20090;-69
2022/10/26 11:24:19;;;;;;;;;;;17.70;99.90;;;;;;4922642;29;20372;-69
2022/10/26 11:26:54;;;;;;;2.13;1.27;;;17.70;99.90;;;;;;4937788;29;19986;-69
2022/10/26 11:29:28;;;;;;;2.45;1.20;;;17.70;99.90;;;;;;4954967;28;20050;-67
2022/10/26 11:32:29;;;;;;;3.90;1.50;;;17.60;99.90;;;;;;4955128;29;20047;-67
2022/10/26 11:35:01;;;;;;;1.98;0.98;;;17.70;99.90;;;;;;4889438;29;20069;-67
2022/10/26 11:37:31;;;;;;;2.75;1.23;;;17.80;99.90;;;;;;4954565;28;20117;-67
2022/10/26 11:40:40;;;;;;;2.05;1.00;;;17.90;99.90;;;;;;4937554;29;20510;-67
2022/10/26 11:43:23;;;;;;;1.27;1.00;;;18.00;99.90;;;;;;4954633;29;20043;-67
2022/10/26 11:46:17;;;;;;;6.63;1.33;;;18.00;99.90;;;;;;4954548;29;20118;-67
2022/10/26 11:48:42;;;;;;;1.38;0.90;;;18.10;99.90;;;;;;4945219;29;20067;-67
2022/10/26 11:51:33;;;;;;;5.97;1.10;;;18.10;99.90;;;;;;4954874;29;20392;-68
2022/10/26 11:54:18;;;;;;;2.88;1.20;;;18.30;99.90;;;;;;4923953;29;20051;-68
2022/10/26 11:56:47;;;;;;;2.20;1.15;;;18.50;98.30;;;;;;4954424;29;20102;-66
2022/10/26 11:59:24;;;;;;;7.43;1.27;;;18.40;98.20;;;;;;4954527;29;20051;-65
2022/10/26 12:02:04;;;;;;;3.10;1.13;;;18.70;99.90;;;;;;4954695;29;20175;-65
2022/10/26 12:04:34;;;;;;;2.78;1.08;;;18.90;99.90;;;;;;4954673;29;20436;-65
2022/10/26 12:07:03;;;;;;;1.60;1.10;;;18.80;99.90;;;;;;4954635;29;20043;-65
2022/10/26 12:09:35;;;;;;;2.25;1.33;;;18.80;98.60;;;;;;4937494;29;20095;-66
2022/10/26 12:12:05;;;;;;;1.63;1.10;;;18.70;98.40;;;;;;4954595;29;20049;-65
2022/10/26 12:14:37;;;;;;;1.27;1.00;;;18.60;98.10;;;;;;4954284;29;20129;-65
2022/10/26 12:17:13;;;;;;;2.05;1.25;;;18.60;99.90;;;;;;4954553;29;20099;-65
2022/10/26 12:19:54;;;;;;;2.17;1.45;;;18.60;99.40;;;;;;4954074;29;20103;-66
2022/10/26 12:22:28;;;;;;;1.65;1.08;;;18.60;99.90;;;;;;4954529;29;20050;-66
2022/10/26 12:25:13;;;;;;;1.40;0.88;;;18.60;96.90;;;;;;4954507;29;20419;-66
2022/10/26 12:27:39;;;;;;;4.45;1.00;;;18.60;97.80;;;;;;4940719;29;20466;-66
2022/10/26 12:30:10;;;;;;;1.92;1.10;;;18.40;99.00;;;;;;4954054;29;20390;-66
2022/10/26 12:32:36;;;;;;;1.67;1.05;;;18.30;99.90;;;;;;4937165;29;20059;-66
2022/10/26 12:35:34;;;;;;;2.15;1.20;;;18.30;99.00;;;;;;4937351;29;20054;-66
2022/10/26 12:38:21;;;;;;;2.08;1.10;;;18.30;99.90;;;;;;4936906;29;20050;-66
2022/10/26 12:40:47;;;;;;;3.35;1.33;;;18.30;99.90;;;;;;4914776;29;20055;-66
2022/10/26 12:43:13;;;;;;;2.08;1.00;;;18.40;99.90;;;;;;4954332;29;20601;-66
2022/10/26 12:45:59;;;;;;;3.75;1.58;;;18.40;99.90;;;;;;4954200;29;20043;-66
2022/10/26 12:48:48;;;;;;;1.88;1.08;;;18.30;99.90;;;;;;4915594;29;20062;-66
2022/10/26 12:51:37;;;;;;;4.05;1.35;;;18.20;99.90;;;;;;4940817;29;20054;-66
2022/10/26 12:54:02;;;;;;;1.67;1.20;;;18.20;99.90;;;;;;4947548;29;20051;-67
2022/10/26 12:56:44;;;;;;;2.40;1.30;;;18.10;99.90;;;;;;4958009;29;20046;-66
2022/10/26 12:59:38;;;;;;;5.53;1.35;;;18.20;99.90;;;;;;4957950;29;20062;-66
2022/10/26 13:02:28;;;;;;;2.85;1.38;;;18.10;99.90;;;;;;4957961;29;20554;-66
2022/10/26 13:05:23;;;;;;;4.07;1.50;;;18.00;99.90;;;;;;4957657;29;20126;-66
2022/10/26 13:07:49;;;;;;;2.65;1.33;;;18.00;99.90;;;;;;4957776;29;20054;-66
2022/10/26 13:10:22;;;;;;;3.13;1.40;;;18.10;99.90;;;;;;4957704;29;20057;-66
2022/10/26 13:12:52;;;;;;;6.88;1.58;;;18.00;99.90;;;;;;4957313;29;20040;-66
2022/10/26 13:15:38;;;;;;;2.85;1.52;;;18.10;99.90;;;;;;4957648;29;20504;-66
2022/10/26 13:18:19;;;;;;;2.40;1.00;;;18.10;99.90;;;;;;4957599;29;20514;-66